sensor_id;sensor_type;location;lat;lon;timestamp;pressure;altitude;pressure_sealevel;temperature;humidity
59337;BME280;45115;52.002;4.686;2023-07-16T00:00:53;100771.84;;;16.11;81.05
59337;BME280;45115;52.002;4.686;2023-07-16T00:03:22;100769.97;;;16.12;80.91
59337;BME280;45115;52.002;4.686;2023-07-16T00:05:49;100764.75;;;16.17;80.14
59337;BME280;45115;52.002;4.686;2023-07-16T00:08:16;100758.00;;;16.19;79.83
59337;BME280;45115;52.002;4.686;2023-07-16T00:10:43;100766.97;;;16.21;80.13
59337;BME280;45115;52.002;4.686;2023-07-16T00:13:10;100760.09;;;16.17;80.55
59337;BME280;45115;52.002;4.686;2023-07-16T00:15:37;100764.44;;;16.12;81.70
59337;BME280;45115;52.002;4.686;2023-07-16T00:18:03;100773.97;;;16.09;81.62
59337;BME280;45115;52.002;4.686;2023-07-16T00:20:32;100773.59;;;16.12;82.03
59337;BME280;45115;52.002;4.686;2023-07-16T00:22:59;100774.63;;;16.11;82.11
59337;BME280;45115;52.002;4.686;2023-07-16T00:25:26;100773.91;;;16.17;81.79
59337;BME280;45115;52.002;4.686;2023-07-16T00:27:52;100766.34;;;16.11;82.00
59337;BME280;45115;52.002;4.686;2023-07-16T00:30:19;100770.03;;;16.04;83.10
59337;BME280;45115;52.002;4.686;2023-07-16T00:32:47;100775.91;;;16.01;82.91
59337;BME280;45115;52.002;4.686;2023-07-16T00:35:14;100763.81;;;16.02;82.58
59337;BME280;45115;52.002;4.686;2023-07-16T00:37:42;100771.25;;;16.01;82.20
59337;BME280;45115;52.002;4.686;2023-07-16T00:40:10;100772.03;;;16.10;82.44
59337;BME280;45115;52.002;4.686;2023-07-16T00:42:37;100780.72;;;16.07;82.45
59337;BME280;45115;52.002;4.686;2023-07-16T00:45:09;100779.81;;;16.14;81.63
59337;BME280;45115;52.002;4.686;2023-07-16T00:47:37;100788.22;;;16.21;81.94
59337;BME280;45115;52.002;4.686;2023-07-16T00:50:05;100777.38;;;16.11;83.12
59337;BME280;45115;52.002;4.686;2023-07-16T00:52:32;100777.56;;;16.10;82.88
59337;BME280;45115;52.002;4.686;2023-07-16T00:55:01;100771.38;;;16.08;82.99
59337;BME280;45115;52.002;4.686;2023-07-16T00:57:27;100785.06;;;16.01;83.88
59337;BME280;45115;52.002;4.686;2023-07-16T00:59:54;100786.41;;;16.05;83.36
59337;BME280;45115;52.002;4.686;2023-07-16T01:02:22;100797.06;;;16.16;82.31
59337;BME280;45115;52.002;4.686;2023-07-16T01:04:49;100778.22;;;16.20;82.12
59337;BME280;45115;52.002;4.686;2023-07-16T01:07:17;100784.09;;;16.17;82.39
59337;BME280;45115;52.002;4.686;2023-07-16T01:09:45;100782.31;;;16.24;81.70
59337;BME280;45115;52.002;4.686;2023-07-16T01:12:13;100781.63;;;16.22;82.60
59337;BME280;45115;52.002;4.686;2023-07-16T01:14:40;100783.88;;;16.26;81.68
59337;BME280;45115;52.002;4.686;2023-07-16T01:17:07;100785.03;;;16.32;81.37
59337;BME280;45115;52.002;4.686;2023-07-16T01:19:34;100775.50;;;16.34;80.88
59337;BME280;45115;52.002;4.686;2023-07-16T01:22:11;100780.31;;;16.40;80.75
59337;BME280;45115;52.002;4.686;2023-07-16T01:25:10;100791.53;;;16.47;80.44
59337;BME280;45115;52.002;4.686;2023-07-16T01:28:16;100786.88;;;16.47;80.50
59337;BME280;45115;52.002;4.686;2023-07-16T01:30:50;100785.28;;;16.45;80.16
59337;BME280;45115;52.002;4.686;2023-07-16T01:33:20;100783.03;;;16.48;80.14
59337;BME280;45115;52.002;4.686;2023-07-16T01:35:48;100783.38;;;16.45;80.44
59337;BME280;45115;52.002;4.686;2023-07-16T01:38:17;100777.56;;;16.40;80.96
59337;BME280;45115;52.002;4.686;2023-07-16T01:40:46;100783.56;;;16.44;80.56
59337;BME280;45115;52.002;4.686;2023-07-16T01:43:13;100788.22;;;16.43;80.57
59337;BME280;45115;52.002;4.686;2023-07-16T01:45:40;100789.81;;;16.38;80.91
59337;BME280;45115;52.002;4.686;2023-07-16T01:48:15;100794.63;;;16.44;80.40
59337;BME280;45115;52.002;4.686;2023-07-16T01:50:47;100787.56;;;16.41;80.42
59337;BME280;45115;52.002;4.686;2023-07-16T01:53:14;100782.03;;;16.41;80.09
59337;BME280;45115;52.002;4.686;2023-07-16T01:55:41;100790.41;;;16.56;79.59
59337;BME280;45115;52.002;4.686;2023-07-16T01:58:07;100789.09;;;16.44;80.36
59337;BME280;45115;52.002;4.686;2023-07-16T02:00:36;100789.28;;;16.42;81.14
59337;BME280;45115;52.002;4.686;2023-07-16T02:03:02;100792.59;;;16.38;81.23
59337;BME280;45115;52.002;4.686;2023-07-16T02:05:32;100795.34;;;16.38;81.67
59337;BME280;45115;52.002;4.686;2023-07-16T02:07:59;100796.03;;;16.40;81.54
59337;BME280;45115;52.002;4.686;2023-07-16T02:10:26;100785.16;;;16.38;81.71
59337;BME280;45115;52.002;4.686;2023-07-16T02:12:52;100790.88;;;16.37;81.37
59337;BME280;45115;52.002;4.686;2023-07-16T02:15:19;100799.22;;;16.29;82.53
59337;BME280;45115;52.002;4.686;2023-07-16T02:17:46;100788.53;;;16.26;82.26
59337;BME280;45115;52.002;4.686;2023-07-16T02:20:15;100797.28;;;16.37;81.97
59337;BME280;45115;52.002;4.686;2023-07-16T02:22:43;100802.63;;;16.39;82.03
59337;BME280;45115;52.002;4.686;2023-07-16T02:25:11;100791.19;;;16.42;81.68
59337;BME280;45115;52.002;4.686;2023-07-16T02:27:38;100786.28;;;16.52;80.94
59337;BME280;45115;52.002;4.686;2023-07-16T02:30:06;100793.38;;;16.54;81.10
59337;BME280;45115;52.002;4.686;2023-07-16T02:32:33;100786.97;;;16.54;81.29
59337;BME280;45115;52.002;4.686;2023-07-16T02:35:00;100787.22;;;16.44;81.73
59337;BME280;45115;52.002;4.686;2023-07-16T02:37:28;100787.53;;;16.49;81.69
59337;BME280;45115;52.002;4.686;2023-07-16T02:39:58;100790.13;;;16.51;81.93
59337;BME280;45115;52.002;4.686;2023-07-16T02:42:25;100806.72;;;16.43;82.19
59337;BME280;45115;52.002;4.686;2023-07-16T02:44:52;100793.28;;;16.40;82.51
59337;BME280;45115;52.002;4.686;2023-07-16T02:47:18;100785.88;;;16.32;83.03
59337;BME280;45115;52.002;4.686;2023-07-16T02:49:45;100804.03;;;16.35;83.03
59337;BME280;45115;52.002;4.686;2023-07-16T02:52:13;100810.13;;;16.30;83.45
59337;BME280;45115;52.002;4.686;2023-07-16T02:54:40;100805.31;;;16.24;83.65
59337;BME280;45115;52.002;4.686;2023-07-16T02:57:08;100804.31;;;16.17;83.98
59337;BME280;45115;52.002;4.686;2023-07-16T02:59:34;100796.56;;;16.13;85.40
59337;BME280;45115;52.002;4.686;2023-07-16T03:02:01;100803.88;;;16.06;86.11
59337;BME280;45115;52.002;4.686;2023-07-16T03:04:28;100808.22;;;15.92;86.90
59337;BME280;45115;52.002;4.686;2023-07-16T03:06:54;100799.94;;;15.92;87.63
59337;BME280;45115;52.002;4.686;2023-07-16T03:09:22;100808.41;;;15.91;87.58
59337;BME280;45115;52.002;4.686;2023-07-16T03:11:49;100798.78;;;15.87;87.73
59337;BME280;45115;52.002;4.686;2023-07-16T03:14:18;100807.78;;;15.81;87.59
59337;BME280;45115;52.002;4.686;2023-07-16T03:16:45;100816.44;;;15.78;87.97
59337;BME280;45115;52.002;4.686;2023-07-16T03:19:12;100808.97;;;15.86;86.93
59337;BME280;45115;52.002;4.686;2023-07-16T03:21:39;100815.88;;;15.82;86.74
59337;BME280;45115;52.002;4.686;2023-07-16T03:24:05;100814.69;;;15.85;86.52
59337;BME280;45115;52.002;4.686;2023-07-16T03:26:32;100818.94;;;15.95;86.37
59337;BME280;45115;52.002;4.686;2023-07-16T03:28:59;100811.97;;;16.07;84.87
59337;BME280;45115;52.002;4.686;2023-07-16T03:31:28;100826.28;;;16.11;84.69
59337;BME280;45115;52.002;4.686;2023-07-16T03:33:56;100830.88;;;16.18;83.85
59337;BME280;45115;52.002;4.686;2023-07-16T03:36:25;100830.75;;;16.20;83.76
59337;BME280;45115;52.002;4.686;2023-07-16T03:38:51;100833.63;;;16.26;82.70
59337;BME280;45115;52.002;4.686;2023-07-16T03:41:18;100835.13;;;16.37;82.48
59337;BME280;45115;52.002;4.686;2023-07-16T03:43:46;100851.22;;;16.33;82.57
59337;BME280;45115;52.002;4.686;2023-07-16T03:46:18;100852.41;;;16.31;83.21
59337;BME280;45115;52.002;4.686;2023-07-16T03:48:47;100847.03;;;16.37;82.21
59337;BME280;45115;52.002;4.686;2023-07-16T03:51:14;100843.44;;;16.29;82.54
59337;BME280;45115;52.002;4.686;2023-07-16T03:53:42;100854.16;;;16.32;82.78
59337;BME280;45115;52.002;4.686;2023-07-16T03:56:09;100855.38;;;16.29;83.16
59337;BME280;45115;52.002;4.686;2023-07-16T03:58:36;100863.06;;;16.42;81.97
59337;BME280;45115;52.002;4.686;2023-07-16T04:01:04;100863.03;;;16.50;81.85
59337;BME280;45115;52.002;4.686;2023-07-16T04:03:31;100872.13;;;16.58;80.35
59337;BME280;45115;52.002;4.686;2023-07-16T04:06:04;100870.56;;;16.64;80.34
59337;BME280;45115;52.002;4.686;2023-07-16T04:08:31;100855.31;;;16.68;79.32
59337;BME280;45115;52.002;4.686;2023-07-16T04:10:58;100853.66;;;16.59;79.92
59337;BME280;45115;52.002;4.686;2023-07-16T04:13:24;100873.50;;;16.62;78.42
59337;BME280;45115;52.002;4.686;2023-07-16T04:15:51;100874.56;;;16.61;79.08
59337;BME280;45115;52.002;4.686;2023-07-16T04:18:21;100880.41;;;16.66;78.24
59337;BME280;45115;52.002;4.686;2023-07-16T04:20:48;100883.16;;;16.66;78.95
59337;BME280;45115;52.002;4.686;2023-07-16T04:23:17;100874.19;;;16.64;79.43
59337;BME280;45115;52.002;4.686;2023-07-16T04:25:43;100889.56;;;16.67;78.57
59337;BME280;45115;52.002;4.686;2023-07-16T04:28:10;100880.34;;;16.74;78.49
59337;BME280;45115;52.002;4.686;2023-07-16T04:30:37;100886.38;;;16.78;78.77
59337;BME280;45115;52.002;4.686;2023-07-16T04:33:04;100870.81;;;16.77;78.26
59337;BME280;45115;52.002;4.686;2023-07-16T04:35:32;100879.03;;;16.85;78.45
59337;BME280;45115;52.002;4.686;2023-07-16T04:37:59;100895.34;;;17.03;77.79
59337;BME280;45115;52.002;4.686;2023-07-16T04:40:29;100885.19;;;17.18;76.88
59337;BME280;45115;52.002;4.686;2023-07-16T04:42:56;100895.06;;;17.35;75.88
59337;BME280;45115;52.002;4.686;2023-07-16T04:45:23;100894.84;;;17.59;74.95
59337;BME280;45115;52.002;4.686;2023-07-16T04:47:49;100899.28;;;17.97;73.35
59337;BME280;45115;52.002;4.686;2023-07-16T04:50:16;100889.22;;;18.25;71.75
59337;BME280;45115;52.002;4.686;2023-07-16T04:52:43;100901.09;;;18.19;72.19
59337;BME280;45115;52.002;4.686;2023-07-16T04:55:10;100896.22;;;17.92;71.96
59337;BME280;45115;52.002;4.686;2023-07-16T04:57:39;100887.13;;;17.69;72.36
59337;BME280;45115;52.002;4.686;2023-07-16T05:00:07;100914.72;;;17.62;72.33
59337;BME280;45115;52.002;4.686;2023-07-16T05:02:34;100913.50;;;17.65;70.88
59337;BME280;45115;52.002;4.686;2023-07-16T05:05:01;100918.38;;;17.63;71.37
59337;BME280;45115;52.002;4.686;2023-07-16T05:07:29;100915.41;;;17.64;71.69
59337;BME280;45115;52.002;4.686;2023-07-16T05:09:56;100907.66;;;17.60;70.85
59337;BME280;45115;52.002;4.686;2023-07-16T05:12:22;100917.31;;;17.64;70.97
59337;BME280;45115;52.002;4.686;2023-07-16T05:14:51;100912.06;;;17.69;70.78
59337;BME280;45115;52.002;4.686;2023-07-16T05:17:18;100914.09;;;17.75;70.83
59337;BME280;45115;52.002;4.686;2023-07-16T05:19:44;100915.03;;;17.67;70.86
59337;BME280;45115;52.002;4.686;2023-07-16T05:22:11;100916.56;;;17.99;69.21
59337;BME280;45115;52.002;4.686;2023-07-16T05:24:38;100924.44;;;18.75;67.31
59337;BME280;45115;52.002;4.686;2023-07-16T05:27:05;100918.66;;;19.82;63.20
59337;BME280;45115;52.002;4.686;2023-07-16T05:29:32;100916.66;;;20.85;59.79
59337;BME280;45115;52.002;4.686;2023-07-16T05:32:00;100932.63;;;21.30;57.93
59337;BME280;45115;52.002;4.686;2023-07-16T05:34:26;100918.94;;;21.81;56.50
59337;BME280;45115;52.002;4.686;2023-07-16T05:36:53;100918.09;;;21.80;55.88
59337;BME280;45115;52.002;4.686;2023-07-16T05:39:20;100923.78;;;22.31;54.28
59337;BME280;45115;52.002;4.686;2023-07-16T05:41:47;100926.09;;;22.47;53.59
59337;BME280;45115;52.002;4.686;2023-07-16T05:44:14;100924.59;;;22.95;51.99
59337;BME280;45115;52.002;4.686;2023-07-16T05:46:41;100927.03;;;22.85;51.80
59337;BME280;45115;52.002;4.686;2023-07-16T05:49:09;100926.75;;;23.87;50.54
59337;BME280;45115;52.002;4.686;2023-07-16T05:51:36;100942.03;;;23.35;50.71
59337;BME280;45115;52.002;4.686;2023-07-16T05:54:03;100932.47;;;21.97;54.04
59337;BME280;45115;52.002;4.686;2023-07-16T05:56:29;100940.53;;;21.14;56.95
59337;BME280;45115;52.002;4.686;2023-07-16T05:58:56;100941.88;;;21.31;56.78
59337;BME280;45115;52.002;4.686;2023-07-16T06:01:23;100951.06;;;21.31;56.10
59337;BME280;45115;52.002;4.686;2023-07-16T06:03:50;100947.41;;;20.57;58.81
59337;BME280;45115;52.002;4.686;2023-07-16T06:06:17;100942.84;;;20.43;59.97
59337;BME280;45115;52.002;4.686;2023-07-16T06:08:44;100939.13;;;21.83;55.51
59337;BME280;45115;52.002;4.686;2023-07-16T06:11:12;100961.09;;;21.06;57.00
59337;BME280;45115;52.002;4.686;2023-07-16T06:13:39;100949.16;;;21.51;56.10
59337;BME280;45115;52.002;4.686;2023-07-16T06:16:05;100961.38;;;21.44;55.85
59337;BME280;45115;52.002;4.686;2023-07-16T06:18:32;100954.09;;;21.69;55.38
59337;BME280;45115;52.002;4.686;2023-07-16T06:20:59;100963.91;;;21.19;56.48
59337;BME280;45115;52.002;4.686;2023-07-16T06:23:27;100963.38;;;20.49;58.43
59337;BME280;45115;52.002;4.686;2023-07-16T06:25:54;100968.59;;;20.65;58.98
59337;BME280;45115;52.002;4.686;2023-07-16T06:28:21;100969.03;;;20.28;60.41
59337;BME280;45115;52.002;4.686;2023-07-16T06:30:49;100975.91;;;20.66;59.58
59337;BME280;45115;52.002;4.686;2023-07-16T06:33:17;100991.53;;;20.67;59.60
59337;BME280;45115;52.002;4.686;2023-07-16T06:35:45;100983.69;;;20.36;60.25
59337;BME280;45115;52.002;4.686;2023-07-16T06:38:12;100994.66;;;19.89;62.36
59337;BME280;45115;52.002;4.686;2023-07-16T06:40:45;101009.81;;;19.44;63.19
59337;BME280;45115;52.002;4.686;2023-07-16T06:43:12;101004.63;;;19.20;64.22
59337;BME280;45115;52.002;4.686;2023-07-16T06:45:39;101006.72;;;19.54;64.39
59337;BME280;45115;52.002;4.686;2023-07-16T06:48:05;101004.16;;;20.29;62.37
59337;BME280;45115;52.002;4.686;2023-07-16T06:50:32;100994.09;;;20.68;60.40
59337;BME280;45115;52.002;4.686;2023-07-16T06:52:59;100998.88;;;21.28;58.45
59337;BME280;45115;52.002;4.686;2023-07-16T06:55:25;101009.84;;;21.43;57.99
59337;BME280;45115;52.002;4.686;2023-07-16T06:57:54;101008.09;;;21.42;57.99
59337;BME280;45115;52.002;4.686;2023-07-16T07:00:21;101005.44;;;21.01;58.96
59337;BME280;45115;52.002;4.686;2023-07-16T07:02:48;101021.09;;;21.08;59.35
59337;BME280;45115;52.002;4.686;2023-07-16T07:05:14;101021.06;;;20.68;60.06
59337;BME280;45115;52.002;4.686;2023-07-16T07:07:41;101014.38;;;20.22;61.65
59337;BME280;45115;52.002;4.686;2023-07-16T07:10:09;101023.00;;;20.06;62.75
59337;BME280;45115;52.002;4.686;2023-07-16T07:12:35;101030.66;;;19.76;64.13
59337;BME280;45115;52.002;4.686;2023-07-16T07:15:05;101030.41;;;19.71;64.50
59337;BME280;45115;52.002;4.686;2023-07-16T07:17:32;101027.81;;;19.90;64.33
59337;BME280;45115;52.002;4.686;2023-07-16T07:20:00;101028.75;;;20.25;63.46
59337;BME280;45115;52.002;4.686;2023-07-16T07:22:26;101038.16;;;21.59;58.40
59337;BME280;45115;52.002;4.686;2023-07-16T07:24:53;101029.84;;;22.31;56.23
59337;BME280;45115;52.002;4.686;2023-07-16T07:27:20;101038.66;;;22.35;55.36
59337;BME280;45115;52.002;4.686;2023-07-16T07:29:47;101040.56;;;22.34;55.72
59337;BME280;45115;52.002;4.686;2023-07-16T07:32:18;101034.59;;;22.24;55.66
59337;BME280;45115;52.002;4.686;2023-07-16T07:34:45;101035.81;;;21.56;57.47
59337;BME280;45115;52.002;4.686;2023-07-16T07:37:12;101054.09;;;21.12;58.81
59337;BME280;45115;52.002;4.686;2023-07-16T07:39:39;101057.47;;;20.66;60.07
59337;BME280;45115;52.002;4.686;2023-07-16T07:42:06;101058.94;;;20.28;61.63
59337;BME280;45115;52.002;4.686;2023-07-16T07:44:33;101060.34;;;20.18;62.79
59337;BME280;45115;52.002;4.686;2023-07-16T07:47:00;101042.56;;;20.40;62.00
59337;BME280;45115;52.002;4.686;2023-07-16T07:49:28;101047.69;;;22.04;57.76
59337;BME280;45115;52.002;4.686;2023-07-16T07:51:54;101056.06;;;22.30;55.89
59337;BME280;45115;52.002;4.686;2023-07-16T07:54:21;101047.06;;;21.95;57.74
59337;BME280;45115;52.002;4.686;2023-07-16T07:56:48;101052.06;;;21.40;58.47
59337;BME280;45115;52.002;4.686;2023-07-16T07:59:15;101063.38;;;20.84;60.92
59337;BME280;45115;52.002;4.686;2023-07-16T08:01:42;101074.59;;;20.29;62.59
59337;BME280;45115;52.002;4.686;2023-07-16T08:04:09;101083.06;;;19.79;64.34
59337;BME280;45115;52.002;4.686;2023-07-16T08:06:37;101074.41;;;19.67;64.63
59337;BME280;45115;52.002;4.686;2023-07-16T08:09:03;101087.69;;;19.72;64.85
59337;BME280;45115;52.002;4.686;2023-07-16T08:11:31;101084.84;;;20.08;64.37
59337;BME280;45115;52.002;4.686;2023-07-16T08:13:58;101116.69;;;20.26;64.43
59337;BME280;45115;52.002;4.686;2023-07-16T08:16:24;101083.78;;;20.57;62.88
59337;BME280;45115;52.002;4.686;2023-07-16T08:18:51;101094.59;;;21.08;61.15
59337;BME280;45115;52.002;4.686;2023-07-16T08:21:18;101089.44;;;21.65;59.66
59337;BME280;45115;52.002;4.686;2023-07-16T08:23:48;101107.84;;;21.46;59.60
59337;BME280;45115;52.002;4.686;2023-07-16T08:26:15;101087.63;;;22.17;57.75
59337;BME280;45115;52.002;4.686;2023-07-16T08:28:42;101089.44;;;21.58;59.47
59337;BME280;45115;52.002;4.686;2023-07-16T08:31:09;101085.16;;;21.69;58.21
59337;BME280;45115;52.002;4.686;2023-07-16T08:33:36;101091.84;;;21.21;61.07
59337;BME280;45115;52.002;4.686;2023-07-16T08:36:03;101093.91;;;20.71;60.85
59337;BME280;45115;52.002;4.686;2023-07-16T08:38:30;101106.34;;;20.69;61.69
59337;BME280;45115;52.002;4.686;2023-07-16T08:40:59;101111.66;;;20.64;61.98
59337;BME280;45115;52.002;4.686;2023-07-16T08:43:26;101105.88;;;20.65;62.12
59337;BME280;45115;52.002;4.686;2023-07-16T08:45:55;101108.53;;;21.08;61.03
59337;BME280;45115;52.002;4.686;2023-07-16T08:48:22;101113.22;;;21.07;60.55
59337;BME280;45115;52.002;4.686;2023-07-16T08:50:49;101113.91;;;21.16;60.83
59337;BME280;45115;52.002;4.686;2023-07-16T08:53:16;101107.13;;;21.85;58.03
59337;BME280;45115;52.002;4.686;2023-07-16T08:55:44;101117.22;;;22.05;57.76
59337;BME280;45115;52.002;4.686;2023-07-16T08:58:13;101112.94;;;22.29;56.80
59337;BME280;45115;52.002;4.686;2023-07-16T09:00:42;101108.22;;;22.10;57.30
59337;BME280;45115;52.002;4.686;2023-07-16T09:03:11;101114.63;;;21.91;58.42
59337;BME280;45115;52.002;4.686;2023-07-16T09:05:38;101113.72;;;21.77;59.01
59337;BME280;45115;52.002;4.686;2023-07-16T09:08:06;101120.03;;;21.39;58.27
59337;BME280;45115;52.002;4.686;2023-07-16T09:10:33;101149.44;;;21.07;59.36
59337;BME280;45115;52.002;4.686;2023-07-16T09:12:59;101123.59;;;20.58;61.19
59337;BME280;45115;52.002;4.686;2023-07-16T09:15:29;101134.22;;;20.48;62.87
59337;BME280;45115;52.002;4.686;2023-07-16T09:17:56;101128.06;;;21.14;62.01
59337;BME280;45115;52.002;4.686;2023-07-16T09:20:23;101125.13;;;21.82;59.70
59337;BME280;45115;52.002;4.686;2023-07-16T09:22:50;101126.66;;;21.98;57.98
59337;BME280;45115;52.002;4.686;2023-07-16T09:25:16;101133.75;;;22.00;57.60
59337;BME280;45115;52.002;4.686;2023-07-16T09:27:43;101130.59;;;22.69;55.79
59337;BME280;45115;52.002;4.686;2023-07-16T09:30:15;101133.22;;;23.27;53.99
59337;BME280;45115;52.002;4.686;2023-07-16T09:32:43;101136.66;;;23.36;53.52
59337;BME280;45115;52.002;4.686;2023-07-16T09:35:11;101135.66;;;23.11;54.39
59337;BME280;45115;52.002;4.686;2023-07-16T09:37:38;101131.59;;;23.95;52.37
59337;BME280;45115;52.002;4.686;2023-07-16T09:40:07;101137.41;;;24.00;50.99
59337;BME280;45115;52.002;4.686;2023-07-16T09:42:37;101129.13;;;23.23;50.17
59337;BME280;45115;52.002;4.686;2023-07-16T09:45:06;101146.19;;;23.02;52.08
59337;BME280;45115;52.002;4.686;2023-07-16T09:47:34;101148.97;;;23.02;53.10
59337;BME280;45115;52.002;4.686;2023-07-16T09:50:02;101145.72;;;23.76;51.90
59337;BME280;45115;52.002;4.686;2023-07-16T09:52:29;101150.25;;;23.19;53.03
59337;BME280;45115;52.002;4.686;2023-07-16T09:55:01;101148.56;;;22.92;53.14
59337;BME280;45115;52.002;4.686;2023-07-16T09:57:31;101149.00;;;22.31;54.57
59337;BME280;45115;52.002;4.686;2023-07-16T10:00:00;101158.00;;;22.06;56.32
59337;BME280;45115;52.002;4.686;2023-07-16T10:02:38;101163.84;;;22.18;56.89
59337;BME280;45115;52.002;4.686;2023-07-16T10:05:13;101169.88;;;22.48;56.75
59337;BME280;45115;52.002;4.686;2023-07-16T10:07:41;101166.44;;;22.78;56.36
59337;BME280;45115;52.002;4.686;2023-07-16T10:10:09;101169.88;;;22.87;56.10
59337;BME280;45115;52.002;4.686;2023-07-16T10:12:37;101174.63;;;22.67;55.25
59337;BME280;45115;52.002;4.686;2023-07-16T10:15:05;101171.38;;;22.37;55.97
59337;BME280;45115;52.002;4.686;2023-07-16T10:17:32;101175.03;;;22.44;57.04
59337;BME280;45115;52.002;4.686;2023-07-16T10:20:00;101180.84;;;22.82;55.38
59337;BME280;45115;52.002;4.686;2023-07-16T10:22:37;101183.84;;;22.54;55.21
59337;BME280;45115;52.002;4.686;2023-07-16T10:25:08;101186.88;;;22.59;55.35
59337;BME280;45115;52.002;4.686;2023-07-16T10:27:36;101175.88;;;22.71;54.24
59337;BME280;45115;52.002;4.686;2023-07-16T10:30:04;101186.84;;;22.92;54.71
59337;BME280;45115;52.002;4.686;2023-07-16T10:32:32;101172.38;;;23.21;55.15
59337;BME280;45115;52.002;4.686;2023-07-16T10:35:00;101179.69;;;23.22;53.88
59337;BME280;45115;52.002;4.686;2023-07-16T10:37:27;101179.41;;;24.00;52.64
59337;BME280;45115;52.002;4.686;2023-07-16T10:39:56;101193.88;;;23.91;51.65
59337;BME280;45115;52.002;4.686;2023-07-16T10:42:24;101196.19;;;24.07;50.43
59337;BME280;45115;52.002;4.686;2023-07-16T10:44:51;101191.25;;;23.96;50.53
59337;BME280;45115;52.002;4.686;2023-07-16T10:47:20;101202.94;;;23.16;52.37
59337;BME280;45115;52.002;4.686;2023-07-16T10:49:48;101200.59;;;23.77;51.24
59337;BME280;45115;52.002;4.686;2023-07-16T10:52:15;101197.25;;;23.62;51.19
59337;BME280;45115;52.002;4.686;2023-07-16T10:54:41;101208.72;;;23.34;51.93
59337;BME280;45115;52.002;4.686;2023-07-16T10:57:11;101208.31;;;23.11;52.42
59337;BME280;45115;52.002;4.686;2023-07-16T10:59:38;101230.41;;;23.25;51.65
59337;BME280;45115;52.002;4.686;2023-07-16T11:02:09;101213.44;;;23.20;52.26
59337;BME280;45115;52.002;4.686;2023-07-16T11:04:37;101211.13;;;23.88;52.50
59337;BME280;45115;52.002;4.686;2023-07-16T11:07:05;101210.47;;;24.55;49.42
59337;BME280;45115;52.002;4.686;2023-07-16T11:09:33;101222.84;;;24.47;49.20
59337;BME280;45115;52.002;4.686;2023-07-16T11:12:07;101217.19;;;24.22;48.05
59337;BME280;45115;52.002;4.686;2023-07-16T11:14:35;101229.66;;;24.58;49.00
59337;BME280;45115;52.002;4.686;2023-07-16T11:17:05;101217.84;;;24.18;48.06
59337;BME280;45115;52.002;4.686;2023-07-16T11:19:34;101214.06;;;24.68;48.54
59337;BME280;45115;52.002;4.686;2023-07-16T11:22:01;101225.34;;;24.24;48.50
59337;BME280;45115;52.002;4.686;2023-07-16T11:24:28;101223.66;;;24.16;50.66
59337;BME280;45115;52.002;4.686;2023-07-16T11:26:55;101231.75;;;23.87;50.08
59337;BME280;45115;52.002;4.686;2023-07-16T11:29:23;101226.38;;;23.85;50.55
59337;BME280;45115;52.002;4.686;2023-07-16T11:31:52;101245.00;;;23.67;50.76
59337;BME280;45115;52.002;4.686;2023-07-16T11:34:20;101238.09;;;23.63;52.17
59337;BME280;45115;52.002;4.686;2023-07-16T11:36:48;101238.00;;;23.05;51.75
59337;BME280;45115;52.002;4.686;2023-07-16T11:39:15;101241.66;;;22.80;52.44
59337;BME280;45115;52.002;4.686;2023-07-16T11:41:42;101245.50;;;23.05;51.91
59337;BME280;45115;52.002;4.686;2023-07-16T11:44:09;101242.69;;;23.18;51.29
59337;BME280;45115;52.002;4.686;2023-07-16T11:46:38;101234.75;;;23.15;50.08
59337;BME280;45115;52.002;4.686;2023-07-16T11:49:06;101254.94;;;23.23;50.36
59337;BME280;45115;52.002;4.686;2023-07-16T11:51:33;101245.28;;;22.87;50.10
59337;BME280;45115;52.002;4.686;2023-07-16T11:53:59;101245.94;;;22.63;50.49
59337;BME280;45115;52.002;4.686;2023-07-16T11:56:26;101253.69;;;22.74;50.70
59337;BME280;45115;52.002;4.686;2023-07-16T11:58:53;101250.66;;;22.56;51.93
59337;BME280;45115;52.002;4.686;2023-07-16T12:01:20;101253.84;;;22.46;52.21
59337;BME280;45115;52.002;4.686;2023-07-16T12:03:46;101252.59;;;22.55;53.61
59337;BME280;45115;52.002;4.686;2023-07-16T12:06:14;101262.47;;;22.58;53.19
59337;BME280;45115;52.002;4.686;2023-07-16T12:08:41;101261.56;;;22.51;53.02
59337;BME280;45115;52.002;4.686;2023-07-16T12:11:08;101256.69;;;22.85;51.55
59337;BME280;45115;52.002;4.686;2023-07-16T12:13:34;101260.56;;;22.91;51.66
59337;BME280;45115;52.002;4.686;2023-07-16T12:16:01;101253.03;;;23.04;51.88
59337;BME280;45115;52.002;4.686;2023-07-16T12:18:28;101264.00;;;22.93;52.84
59337;BME280;45115;52.002;4.686;2023-07-16T12:20:56;101257.28;;;23.53;51.61
59337;BME280;45115;52.002;4.686;2023-07-16T12:23:24;101256.91;;;23.30;52.23
59337;BME280;45115;52.002;4.686;2023-07-16T12:25:51;101267.38;;;23.67;51.29
59337;BME280;45115;52.002;4.686;2023-07-16T12:28:17;101260.25;;;24.28;50.14
59337;BME280;45115;52.002;4.686;2023-07-16T12:30:44;101255.34;;;24.86;47.80
59337;BME280;45115;52.002;4.686;2023-07-16T12:33:11;101255.94;;;25.37;48.46
59337;BME280;45115;52.002;4.686;2023-07-16T12:35:37;101255.34;;;25.28;46.38
59337;BME280;45115;52.002;4.686;2023-07-16T12:38:04;101257.28;;;24.48;47.78
59337;BME280;45115;52.002;4.686;2023-07-16T12:40:32;101267.38;;;24.55;48.17
59337;BME280;45115;52.002;4.686;2023-07-16T12:43:05;101273.78;;;24.62;49.05
59337;BME280;45115;52.002;4.686;2023-07-16T12:45:32;101274.81;;;25.23;48.53
59337;BME280;45115;52.002;4.686;2023-07-16T12:47:58;101258.22;;;25.83;46.64
59337;BME280;45115;52.002;4.686;2023-07-16T12:50:25;101272.81;;;25.30;45.99
59337;BME280;45115;52.002;4.686;2023-07-16T12:52:54;101276.25;;;24.52;47.68